METAR Data
IDs: Format: Raw Decoded Include TAF

Data at: 0648 UTC 11 Dec 2018

PAJC 110634Z AUTO 25020G35KT 2 1/2SM -SN FEW011 BKN021 OVC033 00/M03 A2887 RMK AO2 PK WND 25035/0632 P0000 FZRANO
PAJC 110629Z AUTO 25022G31KT 3SM -SN SCT021 BKN027 OVC033 00/M04 A2887 RMK AO2 PK WND 25031/0629 P0000 FZRANO
PAJC 110617Z AUTO 25024G31KT 9SM -SN FEW017 BKN033 OVC046 01/M05 A2887 RMK AO2 PK WND 25031/0617 P0000 FZRANO
PAJC 110457Z AUTO 24020G28KT 4SM -SN BKN021 OVC027 01/M03 A2884 RMK AO2 PK WND 24029/0417 SLP766 P0000 T00061028 FZRANO
PAJC 110423Z AUTO 21017G29KT 3SM -SN OVC019 01/M02 A2881 RMK AO2 PK WND 24029/0417 CIG 013V025 P0000 FZRANO
PAJC 110409Z AUTO 24010G19KT 2SM -SN BR SCT012 OVC019 01/M01 A2880 RMK AO2 P0000 FZRANO
PAJC 110402Z AUTO 23016G23KT 2SM -SN BR BKN012 OVC020 01/M01 A2879 RMK AO2 VIS 1 1/2V4 P0000 FZRANO
PAJC 110357Z AUTO 26014G19KT 2 1/2SM -SN BR SCT012 BKN020 OVC036 01/M01 A2879 RMK AO2 PK WND 24031/0303 VIS 1 1/2V4 RAE11SNB11 PRESRR P0000 FZRANO
PAJC 110350Z AUTO 26012G24KT 2 1/2SM -SN BKN014 BKN018 OVC035 01/M02 A2878 RMK AO2 PK WND 24031/0303 VIS 2V3 RAE11SNB11 P0000 FZRANO
PAJC 110257Z AUTO 25019G27KT 8SM -RA FEW009 BKN019 OVC027 02/M01 A2873 RMK AO2 PK WND 24028/0245 RAB04E18B46SNB18E46 SLP730 P0000 60000 T00171006 53023 FZRANO
PAJC 110227Z AUTO 25015G22KT 3SM -SN BR SCT009 BKN018 OVC039 02/M01 A2872 RMK AO2 RAB04E18SNB18 P0000 FZRANO
PAJC 110223Z AUTO 24017G22KT 4SM -SN SCT012 BKN022 OVC035 02/M01 A2871 RMK AO2 RAB04E18SNB18 P0000 FZRANO
PAJC 110057Z AUTO 00000KT 10SM CLR 01/M03 A2867 RMK AO2 SLP709 T00111033 FZRANO
PAJC 102357Z AUTO 13003KT 10SM CLR 02/M03 A2867 RMK AO2 SLP707 T00221033 10033 20017 53003 FZRANO
PAJC 102157Z AUTO 00000KT 10SM CLR 02/M03 A2866 RMK AO2 SLP704 T00221028 FZRANO
PAJC 102057Z AUTO 07003KT 10SM CLR 02/M02 A2866 RMK AO2 SLP705 T00221017 51016 FZRANO
PAJC 101957Z AUTO 00000KT 10SM CLR 02/M03 A2865 RMK AO2 SLP702 T00221028 FZRANO
PAJC 101857Z AUTO 07003KT 10SM FEW045 SCT120 02/M01 A2864 RMK AO2 SLP698 T00171011 FZRANO
PAJC 101757Z AUTO 24008KT 10SM FEW039 BKN050 OVC060 03/M01 A2861 RMK AO2 RAB00E57SNE00 SLP689 P0000 60000 T00281006 10056 20017 53017
PAJC 101729Z AUTO 23009KT 10SM -RA FEW023 BKN037 OVC045 03/M01 A2861 RMK AO2 RAB00SNE00 P0000
PAJC 101657Z AUTO 21012G17KT 7SM -SN BKN011 BKN020 OVC026 02/00 A2860 RMK AO2 RAE03B21E40UPB03E21B40E43SNB43 SLP685 P0000 T00220000 FZRANO
PAJC 101645Z AUTO 27006KT 7SM -SN BKN011 BKN016 OVC022 02/00 A2860 RMK AO2 RAE03B21E40UPB03E21B40E43SNB43 P0000 FZRANO
PAJC 101640Z AUTO 25008KT 9SM UP BKN009 BKN016 OVC033 02/00 A2860 RMK AO2 RAE03B21E40UPB03E21B40 P0000 FZRANO
PAJC 101629Z AUTO 25011G18KT 10SM -RA FEW009 BKN023 OVC047 03/00 A2859 RMK AO2 RAE03B21UPB03E21 PRESRR P0000
PAJC 101557Z AUTO 24004KT 10SM -RA FEW022 BKN060 OVC075 02/00 A2857 RMK AO2 RAB34 SLP675 P0000 T00220000 FZRANO
PAJC 101540Z AUTO VRB03KT 10SM -RA SCT025 BKN036 OVC070 02/00 A2856 RMK AO2 RAB34 P0000 FZRANO
PAJC 101529Z AUTO 00000KT 10SM FEW022 BKN026 OVC046 02/00 A2856 RMK AO2 FZRANO
PAJC 101457Z AUTO 27006KT 10SM BKN036 BKN043 03/M01 A2856 RMK AO2 RAE07B37E53 SLP673 P0000 60000 T00331011 56013
PAJC 101357Z AUTO 12003KT 10SM -RA FEW029 BKN039 04/M02 A2856 RMK AO2 SNB01E10 SLP673 P0000 T00391022
PAJC 101321Z AUTO 00000KT 10SM -RA SCT011 SCT020 BKN032 03/00 A2859 RMK AO2 SNB01E10 P0000
PAJC 101313Z AUTO VRB03KT 8SM -RA SCT011 BKN020 OVC100 02/01 A2858 RMK AO2 SNB01E10 CIG 015V025 P0000 FZRANO
PAJC 101300Z AUTO 21012KT 4SM RA BR BKN011 BKN024 OVC034 03/01 A2860 RMK AO2 P0000
PAJC 101257Z AUTO 21012G23KT 5SM RA BR SCT010 BKN017 OVC031 03/01 A2860 RMK AO2 SLP684 P0000 T00280006
PAJC 101251Z AUTO 22017G23KT 8SM -RA FEW013 BKN023 OVC033 04/01 A2860 RMK AO2 P0000
PAJC 101219Z AUTO 17007G25KT 10SM -RA SCT019 BKN032 BKN042 06/M01 A2859 RMK AO2 P0000
PAJC 101110Z AUTO 13020G27KT 4SM -RA FEW007 OVC019 04/02 A2862 RMK AO2 PK WND 13027/1110 PRESFR P0000
PAJC 101057Z AUTO 13013G22KT 7SM RA OVC019 04/01 A2864 RMK AO2 PK WND 12027/1021 PRESFR SLP700 P0004 T00440011
PAJC 100857Z AUTO 14016G27KT 7SM RA OVC021 04/01 A2875 RMK AO2 PK WND 13027/0856 SLP735 6//// T00440006 58042 PNO $
PAJC 100757Z AUTO 17008G29KT 6SM RA OVC020 05/01 A2879 RMK AO2 PK WND 17030/0747 SLP750 T00500006 400501033 PNO $
PAJC 100657Z AUTO 04005KT 10SM -RA OVC028 03/00 A2883 RMK AO2 SLP763 P0000 T00280000
PAJC 100647Z AUTO 00000KT 10SM -RA OVC028 03/M01 A2884 RMK AO2 P0000
PAJC 100557Z AUTO 22008KT 190V250 10SM -RA FEW027 BKN034 OVC044 04/M01 A2887 RMK AO2 RAB48 SLP777 P0000 60000 T00441011 10050 20022 58022
PAJC 100357Z AUTO 00000KT 10SM CLR 03/M04 A2892 RMK AO2 SLP793 T00281044
PAJC 100257Z AUTO VRB03KT 10SM FEW120 03/M04 A2894 RMK AO2 SLP799 T00281039 50008
PAJC 100157Z AUTO 00000KT 10SM CLR 03/M04 A2894 RMK AO2 SLP799 T00281039
PAJC 100057Z AUTO 21011KT 10SM CLR 05/M04 A2892 RMK AO2 SLP795 T00501039
PAJC 092257Z AUTO 20009G20KT 10SM FEW090 05/M03 A2892 RMK AO2 SLP792 T00501033
PAJC 092157Z AUTO 25007KT 10SM FEW055 04/M02 A2890 RMK AO2 SLP788 T00441017
PAJC 092057Z AUTO 25004KT 10SM FEW035 BKN060 OVC120 03/00 A2889 RMK AO2 WSHFT 2012 SLP784 60000 T00280000 53013
PAJC 092028Z AUTO 24011KT 10SM SCT028 BKN036 OVC070 03/01 A2888 RMK AO2 WSHFT 2012
PAJC 091957Z AUTO 23012KT 10SM FEW034 SCT042 SCT100 02/01 A2886 RMK AO2 RAE27 SLP773 P0000 T00220006 FZRANO
PAJC 091928Z AUTO 12004KT 10SM SCT013 BKN035 OVC100 02/00 A2884 RMK AO2 RAE27 P0000 FZRANO
PAJC 091912Z AUTO 20006KT 10SM -RA BKN013 OVC018 02/01 A2885 RMK AO2 P0000 FZRANO
PAJC 091859Z AUTO 23005KT 10SM -RA SCT012 BKN017 OVC024 02/01 A2885 RMK AO2 RAB13E22B45UPB22E45 SLP771 P0000 T00220006 FZRANO
PAJC 091857Z AUTO 25004KT 10SM -RA SCT012 BKN017 OVC049 02/01 A2885 RMK AO2 RAB13E22B45UPB22E45 P0000 FZRANO
PAJC 091851Z AUTO 29008KT 10SM -RA BKN014 BKN024 OVC065 02/01 A2885 RMK AO2 RAB13E22B45UPB22E45 PRESRR P0000 FZRANO